Dirección General De Aeronáutica Civil

Dirección Meteorológica de Chile - Servicios Climáticos

Informe General de Control de Calidad de la Estación

Listado de niveles de control de calidad para algunos parámetros
Estación Canela Baja (Liceo Padre José Herde) (310023)
Fecha de Revisión de los datos :

Elementos

Registros Niveles de Control Total
Nivel 0 Nivel 1 Nivel 2 Nivel 3 Errores Porcentaje
01 Temperatura del Aire Seco 43.992 2 0.00 % 0 . 0 . 0 . 2 0.00 %
02 Temperatura de Rocío 34.712 0 . 0 . 0 . 0 . 0 0.00 %
03 Humedad Relativa del Aire 34.695 0 . 0 . 0 . 0 . 0 0.00 %
04 Temperatura Máxima PM 4.470 0 . 0 . 116 2.60 % 0 . 116 2.60 %
05 Temperatura Mínima AM 5.317 0 . 0 . 46 0.87 % 0 . 46 0.87 %
06 Viento a 10 m. de Altura 34.712 0 . 0 . 0 . 0 . 0 0.00 %
07 Agua Caida, Acumulada 6 Horas 5.777 0 . 0 . 0 . 0 . 0 0.00 %
08 Presión Atm. a Nivel de Estación (QFE) 34.695 0 . 0 . 0 . 0 . 0 0.00 %
09 Presión Atm. a Nivel Medio del Mar (QFF) 34.695 0 . 0 . 0 . 0 . 0 0.00 %
10 Presión Atm. Estándar OACI (QNH) 34.695 0 . 0 . 0 . 0 . 0 0.00 %

Totales

267.760 . 0.0007 % . 0.0000 % . 0.0605 % . 0.0000 % 164 0.0612 %

Detalle de Errores Recientes

Fecha del Dato Descripción Información Error Fecha Ingreso
1999-01-03 00:00:00 Temperatura 28.9 del 02-01-1999 18:00, Mayor que la Máxima 26.6 03-01-1999 00:00 28.9 -- 26.6 2023-12-29 02:37:00
1999-01-06 00:00:00 Temperatura 22.2 del 05-01-1999 18:00, Mayor que la Máxima 22.0 06-01-1999 00:00 22.2 -- 22.0 2023-12-29 02:37:00
1999-01-25 00:00:00 Temperatura 24.4 del 24-01-1999 18:00, Mayor que la Máxima 13.0 25-01-1999 00:00 24.4 -- 13.0 2023-12-29 02:37:00
1999-12-18 00:00:00 Temperatura 21.6 del 17-12-1999 18:00, Mayor que la Máxima 21.2 18-12-1999 00:00 21.6 -- 21.2 2023-12-29 02:38:00
1999-12-26 00:00:00 Temperatura 24.0 del 25-12-1999 18:00, Mayor que la Máxima 23.6 26-12-1999 00:00 24.0 -- 23.6 2023-12-29 02:38:00
2000-04-21 00:00:00 Temperatura 18.8 del 20-04-2000 18:00, Mayor que la Máxima 17.2 21-04-2000 00:00 18.8 -- 17.2 2023-12-29 02:38:00
2000-04-28 00:00:00 Temperatura 16.2 del 27-04-2000 18:00, Mayor que la Máxima 16.0 28-04-2000 00:00 16.2 -- 16.0 2023-12-29 02:38:00
2000-04-30 00:00:00 Temperatura 19.8 del 29-04-2000 18:00, Mayor que la Máxima 18.4 30-04-2000 00:00 19.8 -- 18.4 2023-12-29 02:38:00
2000-05-15 00:00:00 Temperatura 16.4 del 14-05-2000 18:00, Mayor que la Máxima 16.3 15-05-2000 00:00 16.4 -- 16.3 2023-12-29 02:38:00
2000-05-29 00:00:00 Temperatura 18.6 del 28-05-2000 18:00, Mayor que la Máxima 15.8 29-05-2000 00:00 18.6 -- 15.8 2023-12-29 02:38:00
2000-07-05 00:00:00 Temperatura 20.8 del 04-07-2000 18:00, Mayor que la Máxima 20.0 05-07-2000 00:00 20.8 -- 20.0 2023-12-29 02:38:00
2004-05-19 00:00:00 Temperatura 17.2 del 18-05-2004 18:00, Mayor que la Máxima 17.0 19-05-2004 00:00 17.2 -- 17.0 2023-12-29 02:38:00
2004-07-11 00:00:00 Temperatura 18.2 del 11-07-2004 00:00, Mayor que la Máxima 17.2 11-07-2004 00:00 18.2 -- 17.2 2023-12-29 02:39:00
2004-07-13 00:00:00 Temperatura 15.2 del 12-07-2004 18:00, Mayor que la Máxima 10.8 13-07-2004 00:00 15.2 -- 10.8 2023-12-29 02:39:00
2004-08-10 00:00:00 Temperatura 12.4 del 09-08-2004 18:00, Mayor que la Máxima 11.4 10-08-2004 00:00 12.4 -- 11.4 2023-12-29 02:39:00
2004-12-10 00:00:00 Temperatura 23.8 del 10-12-2004 00:00, Mayor que la Máxima 23.2 10-12-2004 00:00 23.8 -- 23.2 2023-12-29 02:39:00
2005-01-13 00:00:00 Temperatura 27.0 del 12-01-2005 18:00, Mayor que la Máxima 25.4 13-01-2005 00:00 27.0 -- 25.4 2023-12-29 02:39:00
2005-01-16 00:00:00 Temperatura 24.0 del 15-01-2005 18:00, Mayor que la Máxima 20.0 16-01-2005 00:00 24.0 -- 20.0 2023-12-29 02:39:00
2005-01-23 00:00:00 Temperatura 28.8 del 22-01-2005 18:00, Mayor que la Máxima 26.2 23-01-2005 00:00 28.8 -- 26.2 2023-12-29 02:39:00
2005-02-13 00:00:00 Temperatura 23.2 del 12-02-2005 18:00, Mayor que la Máxima 23.0 13-02-2005 00:00 23.2 -- 23.0 2023-12-29 02:39:00
2005-02-14 00:00:00 Temperatura 24.2 del 13-02-2005 18:00, Mayor que la Máxima 24.0 14-02-2005 00:00 24.2 -- 24.0 2023-12-29 02:39:00
2005-04-07 00:00:00 Temperatura 20.4 del 07-04-2005 00:00, Mayor que la Máxima 18.8 07-04-2005 00:00 20.4 -- 18.8 2023-12-29 02:39:00
2005-04-11 00:00:00 Temperatura 19.6 del 11-04-2005 00:00, Mayor que la Máxima 19.0 11-04-2005 00:00 19.6 -- 19.0 2023-12-29 02:39:00
2005-04-28 00:00:00 Temperatura 20.4 del 28-04-2005 00:00, Mayor que la Máxima 18.6 28-04-2005 00:00 20.4 -- 18.6 2023-12-29 02:39:00
2005-05-10 00:00:00 Temperatura 22.0 del 10-05-2005 00:00, Mayor que la Máxima 20.0 10-05-2005 00:00 22.0 -- 20.0 2023-12-29 02:39:00
2005-05-15 00:00:00 Temperatura 22.6 del 15-05-2005 00:00, Mayor que la Máxima 15.0 15-05-2005 00:00 22.6 -- 15.0 2023-12-29 02:39:00
2005-05-19 00:00:00 Temperatura 22.4 del 19-05-2005 00:00, Mayor que la Máxima 21.8 19-05-2005 00:00 22.4 -- 21.8 2023-12-29 02:39:00
2005-05-20 00:00:00 Temperatura 18.8 del 20-05-2005 00:00, Mayor que la Máxima 15.8 20-05-2005 00:00 18.8 -- 15.8 2023-12-29 02:39:00
2005-05-21 00:00:00 Temperatura 19.2 del 21-05-2005 00:00, Mayor que la Máxima 15.2 21-05-2005 00:00 19.2 -- 15.2 2023-12-29 02:39:00
2005-05-22 00:00:00 Temperatura 22.6 del 22-05-2005 00:00, Mayor que la Máxima 20.0 22-05-2005 00:00 22.6 -- 20.0 2023-12-29 02:39:00
2005-05-24 00:00:00 Temperatura 16.6 del 24-05-2005 00:00, Mayor que la Máxima 14.6 24-05-2005 00:00 16.6 -- 14.6 2023-12-29 02:39:00
2005-05-25 00:00:00 Temperatura 22.0 del 25-05-2005 00:00, Mayor que la Máxima 17.6 25-05-2005 00:00 22.0 -- 17.6 2023-12-29 02:39:00
2005-05-27 00:00:00 Temperatura 18.0 del 27-05-2005 00:00, Mayor que la Máxima 17.4 27-05-2005 00:00 18.0 -- 17.4 2023-12-29 02:39:00
2005-05-28 00:00:00 Temperatura 22.0 del 28-05-2005 00:00, Mayor que la Máxima 20.4 28-05-2005 00:00 22.0 -- 20.4 2023-12-29 02:39:00
2005-05-29 00:00:00 Temperatura 24.8 del 29-05-2005 00:00, Mayor que la Máxima 21.2 29-05-2005 00:00 24.8 -- 21.2 2023-12-29 02:39:00
2005-05-30 00:00:00 Temperatura 24.2 del 30-05-2005 00:00, Mayor que la Máxima 21.8 30-05-2005 00:00 24.2 -- 21.8 2023-12-29 02:39:00
2005-05-31 00:00:00 Temperatura 26.0 del 31-05-2005 00:00, Mayor que la Máxima 23.0 31-05-2005 00:00 26.0 -- 23.0 2023-12-29 02:39:00
2005-06-01 00:00:00 Temperatura 22.0 del 01-06-2005 00:00, Mayor que la Máxima 20.0 01-06-2005 00:00 22.0 -- 20.0 2023-12-29 02:39:00
2005-06-05 00:00:00 Temperatura 22.3 del 05-06-2005 00:00, Mayor que la Máxima 19.6 05-06-2005 00:00 22.3 -- 19.6 2023-12-29 02:39:00
2005-06-06 00:00:00 Temperatura 22.6 del 06-06-2005 00:00, Mayor que la Máxima 18.9 06-06-2005 00:00 22.6 -- 18.9 2023-12-29 02:39:00
2005-06-07 00:00:00 Temperatura 20.3 del 07-06-2005 00:00, Mayor que la Máxima 19.8 07-06-2005 00:00 20.3 -- 19.8 2023-12-29 02:39:00
2005-06-08 00:00:00 Temperatura 24.0 del 08-06-2005 00:00, Mayor que la Máxima 20.4 08-06-2005 00:00 24.0 -- 20.4 2023-12-29 02:39:00
2005-06-09 00:00:00 Temperatura 20.8 del 09-06-2005 00:00, Mayor que la Máxima 20.6 09-06-2005 00:00 20.8 -- 20.6 2023-12-29 02:39:00
2005-06-10 00:00:00 Temperatura 18.8 del 10-06-2005 00:00, Mayor que la Máxima 18.6 10-06-2005 00:00 18.8 -- 18.6 2023-12-29 02:39:00
2005-06-11 00:00:00 Temperatura 20.3 del 11-06-2005 00:00, Mayor que la Máxima 16.2 11-06-2005 00:00 20.3 -- 16.2 2023-12-29 02:39:00
2005-06-12 00:00:00 Temperatura 20.0 del 12-06-2005 00:00, Mayor que la Máxima 11.0 12-06-2005 00:00 20.0 -- 11.0 2023-12-29 02:39:00
2005-06-13 00:00:00 Temperatura 18.9 del 13-06-2005 00:00, Mayor que la Máxima 16.4 13-06-2005 00:00 18.9 -- 16.4 2023-12-29 02:39:00
2005-06-14 00:00:00 Temperatura 16.6 del 14-06-2005 00:00, Mayor que la Máxima 16.0 14-06-2005 00:00 16.6 -- 16.0 2023-12-29 02:39:00
2005-06-15 00:00:00 Temperatura 24.8 del 15-06-2005 00:00, Mayor que la Máxima 20.0 15-06-2005 00:00 24.8 -- 20.0 2023-12-29 02:39:00
2005-06-17 00:00:00 Temperatura 23.6 del 17-06-2005 00:00, Mayor que la Máxima 20.0 17-06-2005 00:00 23.6 -- 20.0 2023-12-29 02:39:00
2005-06-18 00:00:00 Temperatura 18.0 del 18-06-2005 00:00, Mayor que la Máxima 17.8 18-06-2005 00:00 18.0 -- 17.8 2023-12-29 02:39:00
2005-06-19 00:00:00 Temperatura 22.0 del 19-06-2005 00:00, Mayor que la Máxima 20.6 19-06-2005 00:00 22.0 -- 20.6 2023-12-29 02:39:00
2005-06-20 00:00:00 Temperatura 23.4 del 20-06-2005 00:00, Mayor que la Máxima 20.4 20-06-2005 00:00 23.4 -- 20.4 2023-12-29 02:39:00
2005-06-22 00:00:00 Temperatura 24.6 del 22-06-2005 00:00, Mayor que la Máxima 21.2 22-06-2005 00:00 24.6 -- 21.2 2023-12-29 02:39:00
2005-06-26 00:00:00 Temperatura 22.0 del 26-06-2005 00:00, Mayor que la Máxima 19.8 26-06-2005 00:00 22.0 -- 19.8 2023-12-29 02:39:00
2005-06-27 00:00:00 Temperatura 24.0 del 27-06-2005 00:00, Mayor que la Máxima 21.4 27-06-2005 00:00 24.0 -- 21.4 2023-12-29 02:39:00
2005-06-29 00:00:00 Temperatura 22.0 del 29-06-2005 00:00, Mayor que la Máxima 19.0 29-06-2005 00:00 22.0 -- 19.0 2023-12-29 02:39:00
2005-06-30 00:00:00 Temperatura 24.2 del 30-06-2005 00:00, Mayor que la Máxima 20.4 30-06-2005 00:00 24.2 -- 20.4 2023-12-29 02:39:00
2005-07-01 00:00:00 Temperatura 20.4 del 01-07-2005 00:00, Mayor que la Máxima 17.0 01-07-2005 00:00 20.4 -- 17.0 2023-12-29 02:39:00
2005-07-03 00:00:00 Temperatura 20.6 del 03-07-2005 00:00, Mayor que la Máxima 18.0 03-07-2005 00:00 20.6 -- 18.0 2023-12-29 02:39:00
2005-07-04 00:00:00 Temperatura 19.0 del 04-07-2005 00:00, Mayor que la Máxima 16.0 04-07-2005 00:00 19.0 -- 16.0 2023-12-29 02:39:00
2005-07-09 00:00:00 Temperatura 20.8 del 09-07-2005 00:00, Mayor que la Máxima 20.6 09-07-2005 00:00 20.8 -- 20.6 2023-12-29 02:39:00
2005-07-11 00:00:00 Temperatura 24.0 del 11-07-2005 00:00, Mayor que la Máxima 23.8 11-07-2005 00:00 24.0 -- 23.8 2023-12-29 02:39:00
2005-07-15 00:00:00 Temperatura 18.0 del 15-07-2005 00:00, Mayor que la Máxima 12.0 15-07-2005 00:00 18.0 -- 12.0 2023-12-29 02:39:00
2005-07-16 00:00:00 Temperatura 19.6 del 16-07-2005 00:00, Mayor que la Máxima 12.8 16-07-2005 00:00 19.6 -- 12.8 2023-12-29 02:39:00
2005-07-17 00:00:00 Temperatura 18.6 del 17-07-2005 00:00, Mayor que la Máxima 14.6 17-07-2005 00:00 18.6 -- 14.6 2023-12-29 02:39:00
2005-07-18 00:00:00 Temperatura 18.8 del 18-07-2005 00:00, Mayor que la Máxima 15.8 18-07-2005 00:00 18.8 -- 15.8 2023-12-29 02:39:00
2005-07-19 00:00:00 Temperatura 20.4 del 19-07-2005 00:00, Mayor que la Máxima 15.8 19-07-2005 00:00 20.4 -- 15.8 2023-12-29 02:39:00
2005-07-21 00:00:00 Temperatura 14.8 del 21-07-2005 00:00, Mayor que la Máxima 13.0 21-07-2005 00:00 14.8 -- 13.0 2023-12-29 02:39:00
2005-07-22 00:00:00 Temperatura 18.8 del 22-07-2005 00:00, Mayor que la Máxima 15.2 22-07-2005 00:00 18.8 -- 15.2 2023-12-29 02:39:00
2005-07-23 00:00:00 Temperatura 22.0 del 23-07-2005 00:00, Mayor que la Máxima 15.2 23-07-2005 00:00 22.0 -- 15.2 2023-12-29 02:39:00
2005-07-24 00:00:00 Temperatura 20.6 del 24-07-2005 00:00, Mayor que la Máxima 16.6 24-07-2005 00:00 20.6 -- 16.6 2023-12-29 02:39:00
2005-07-25 00:00:00 Temperatura 19.6 del 25-07-2005 00:00, Mayor que la Máxima 18.0 25-07-2005 00:00 19.6 -- 18.0 2023-12-29 02:39:00
2005-07-26 00:00:00 Temperatura 24.0 del 26-07-2005 00:00, Mayor que la Máxima 13.0 26-07-2005 00:00 24.0 -- 13.0 2023-12-29 02:39:00
2005-07-27 00:00:00 Temperatura 18.2 del 27-07-2005 00:00, Mayor que la Máxima 15.8 27-07-2005 00:00 18.2 -- 15.8 2023-12-29 02:39:00
2005-07-29 00:00:00 Temperatura 18.8 del 29-07-2005 00:00, Mayor que la Máxima 18.6 29-07-2005 00:00 18.8 -- 18.6 2023-12-29 02:39:00
2005-07-30 00:00:00 Temperatura 20.2 del 30-07-2005 00:00, Mayor que la Máxima 17.2 30-07-2005 00:00 20.2 -- 17.2 2023-12-29 02:39:00
2005-07-31 00:00:00 Temperatura 22.0 del 31-07-2005 00:00, Mayor que la Máxima 21.8 31-07-2005 00:00 22.0 -- 21.8 2023-12-29 02:39:00
2005-08-01 00:00:00 Temperatura 24.0 del 01-08-2005 00:00, Mayor que la Máxima 20.0 01-08-2005 00:00 24.0 -- 20.0 2023-12-29 02:39:00
2005-08-09 00:00:00 Temperatura 19.8 del 08-08-2005 18:00, Mayor que la Máxima 15.8 09-08-2005 00:00 19.8 -- 15.8 2023-12-29 02:39:00
2005-09-12 00:00:00 Temperatura 12.6 del 11-09-2005 18:00, Mayor que la Máxima 11.0 12-09-2005 00:00 12.6 -- 11.0 2023-12-29 02:39:00
2005-11-09 00:00:00 Temperatura 20.4 del 09-11-2005 00:00, Mayor que la Máxima 19.2 09-11-2005 00:00 20.4 -- 19.2 2023-12-29 02:40:00
2005-12-31 00:00:00 Temperatura 22.8 del 30-12-2005 18:00, Mayor que la Máxima 20.8 31-12-2005 00:00 22.8 -- 20.8 2023-12-29 02:40:00
2006-01-29 00:00:00 Temperatura 27.0 del 28-01-2006 18:00, Mayor que la Máxima 26.8 29-01-2006 00:00 27.0 -- 26.8 2023-12-29 02:40:00
2006-03-04 00:00:00 Temperatura 26.0 del 03-03-2006 18:00, Mayor que la Máxima 21.8 04-03-2006 00:00 26.0 -- 21.8 2023-12-29 02:40:00
2006-03-28 00:00:00 Temperatura 22.8 del 27-03-2006 18:00, Mayor que la Máxima 22.7 28-03-2006 00:00 22.8 -- 22.7 2023-12-29 02:40:00
2006-04-17 00:00:00 Temperatura 23.0 del 16-04-2006 18:00, Mayor que la Máxima 19.6 17-04-2006 00:00 23.0 -- 19.6 2023-12-29 02:40:00
2006-04-24 00:00:00 Temperatura 18.4 del 23-04-2006 18:00, Mayor que la Máxima 18.0 24-04-2006 00:00 18.4 -- 18.0 2023-12-29 02:40:00
2006-05-20 00:00:00 Temperatura 18.6 del 19-05-2006 18:00, Mayor que la Máxima 18.0 20-05-2006 00:00 18.6 -- 18.0 2023-12-29 02:40:00
2006-07-01 00:00:00 Temperatura 17.6 del 30-06-2006 18:00, Mayor que la Máxima 12.0 01-07-2006 00:00 17.6 -- 12.0 2023-12-29 02:40:00
2006-09-14 00:00:00 Temperatura 19.0 del 14-09-2006 00:00, Mayor que la Máxima 15.6 14-09-2006 00:00 19.0 -- 15.6 2023-12-29 02:40:00
2006-09-15 00:00:00 Temperatura 19.4 del 15-09-2006 00:00, Mayor que la Máxima 16.0 15-09-2006 00:00 19.4 -- 16.0 2023-12-29 02:40:00
2006-09-30 00:00:00 Temperatura 18.8 del 29-09-2006 18:00, Mayor que la Máxima 17.2 30-09-2006 00:00 18.8 -- 17.2 2023-12-29 02:40:00
2006-10-15 00:00:00 Temperatura 18.0 del 15-10-2006 00:00, Mayor que la Máxima 17.0 15-10-2006 00:00 18.0 -- 17.0 2023-12-29 02:40:00
2007-03-22 00:00:00 Temperatura 26.6 del 22-03-2007 00:00, Mayor que la Máxima 24.0 22-03-2007 00:00 26.6 -- 24.0 2023-12-29 02:41:00
2007-10-14 00:00:00 Temperatura 24.2 del 13-10-2007 18:00, Mayor que la Máxima 15.2 14-10-2007 00:00 24.2 -- 15.2 2023-12-29 02:41:00
2007-11-20 00:00:00 Temperatura 28.4 del 19-11-2007 18:00, Mayor que la Máxima 2.0 20-11-2007 00:00 28.4 -- 2.0 2023-12-29 02:41:00
2009-03-02 00:00:00 Temperatura 26.2 del 01-03-2009 18:00, Mayor que la Máxima 24.0 02-03-2009 00:00 26.2 -- 24.0 2023-12-29 02:42:00
2009-06-05 00:00:00 Temperatura 23.9 del 04-06-2009 18:00, Mayor que la Máxima 18.4 05-06-2009 00:00 23.9 -- 18.4 2023-12-29 02:42:00
2009-06-07 00:00:00 Temperatura 17.6 del 06-06-2009 18:00, Mayor que la Máxima 17.0 07-06-2009 00:00 17.6 -- 17.0 2023-12-29 02:42:00
2009-07-22 00:00:00 Temperatura 14.6 del 21-07-2009 18:00, Mayor que la Máxima 14.4 22-07-2009 00:00 14.6 -- 14.4 2023-12-29 02:43:00
2009-08-01 00:00:00 Temperatura 16.8 del 31-07-2009 18:00, Mayor que la Máxima 15.4 01-08-2009 00:00 16.8 -- 15.4 2023-12-29 02:43:00
2009-08-12 00:00:00 Temperatura 22.4 del 11-08-2009 18:00, Mayor que la Máxima 16.2 12-08-2009 00:00 22.4 -- 16.2 2023-12-29 02:43:00
2009-09-13 00:00:00 Temperatura 13.0 del 12-09-2009 18:00, Mayor que la Máxima 12.4 13-09-2009 00:00 13.0 -- 12.4 2023-12-29 02:43:00
2009-09-26 00:00:00 Temperatura 19.8 del 25-09-2009 18:00, Mayor que la Máxima 12.0 26-09-2009 00:00 19.8 -- 12.0 2023-12-29 02:43:00
2009-11-03 00:00:00 Temperatura 19.6 del 02-11-2009 18:00, Mayor que la Máxima 19.2 03-11-2009 00:00 19.6 -- 19.2 2023-12-29 02:43:00
2009-11-28 00:00:00 Temperatura 22.0 del 27-11-2009 18:00, Mayor que la Máxima 21.4 28-11-2009 00:00 22.0 -- 21.4 2023-12-29 02:43:00
2010-01-21 00:00:00 Temperatura 24.6 del 20-01-2010 18:00, Mayor que la Máxima 24.0 21-01-2010 00:00 24.6 -- 24.0 2023-12-29 02:43:00
2010-01-22 00:00:00 Temperatura 29.6 del 21-01-2010 18:00, Mayor que la Máxima 27.8 22-01-2010 00:00 29.6 -- 27.8 2023-12-29 02:43:00
2010-10-13 00:00:00 Temperatura 14.6 del 12-10-2010 18:00, Mayor que la Máxima 9.0 13-10-2010 00:00 14.6 -- 9.0 2023-12-29 02:44:00
2011-07-18 00:00:00 Temperatura 12.2 del 17-07-2011 18:00, Mayor que la Máxima 1.8 18-07-2011 00:00 12.2 -- 1.8 2023-12-29 02:44:00
1999-01-29 12:00:00 Temperatura 15.8 del 29-01-1999 12:00, Menor que la Mínima 16.0 29-01-1999 12:00 15.8 -- 16.0 2023-12-29 02:37:00
1999-10-21 12:00:00 Temperatura 12.1 del 21-10-1999 12:00, Menor que la Mínima 12.2 21-10-1999 12:00 12.1 -- 12.2 2023-12-29 02:38:00
1999-11-03 12:00:00 Temperatura 12.2 del 03-11-1999 12:00, Menor que la Mínima 12.4 03-11-1999 12:00 12.2 -- 12.4 2023-12-29 02:38:00
1999-11-09 12:00:00 Temperatura 11.2 del 09-11-1999 12:00, Menor que la Mínima 12.2 09-11-1999 12:00 11.2 -- 12.2 2023-12-29 02:38:00
2000-06-24 12:00:00 Temperatura 9.0 del 24-06-2000 12:00, Menor que la Mínima 10.0 24-06-2000 12:00 9.0 -- 10.0 2023-12-29 02:38:00
2000-06-25 12:00:00 Temperatura 8.2 del 25-06-2000 12:00, Menor que la Mínima 10.0 25-06-2000 12:00 8.2 -- 10.0 2023-12-29 02:38:00
2000-07-15 12:00:00 Temperatura 7.0 del 15-07-2000 12:00, Menor que la Mínima 7.1 15-07-2000 12:00 7.0 -- 7.1 2023-12-29 02:38:00
2000-07-21 12:00:00 Temperatura 7.6 del 21-07-2000 12:00, Menor que la Mínima 8.4 21-07-2000 12:00 7.6 -- 8.4 2023-12-29 02:38:00
2004-07-10 12:00:00 Temperatura 4.8 del 10-07-2004 12:00, Menor que la Mínima 5.6 10-07-2004 12:00 4.8 -- 5.6 2023-12-29 02:39:00
2004-09-03 12:00:00 Temperatura 12.6 del 03-09-2004 12:00, Menor que la Mínima 13.6 03-09-2004 12:00 12.6 -- 13.6 2023-12-29 02:39:00
2004-09-05 12:00:00 Temperatura 10.6 del 05-09-2004 12:00, Menor que la Mínima 13.2 05-09-2004 12:00 10.6 -- 13.2 2023-12-29 02:39:00
2004-09-13 12:00:00 Temperatura 9.6 del 13-09-2004 12:00, Menor que la Mínima 9.8 13-09-2004 12:00 9.6 -- 9.8 2023-12-29 02:39:00
2004-12-20 12:00:00 Temperatura 12.4 del 20-12-2004 12:00, Menor que la Mínima 13.0 20-12-2004 12:00 12.4 -- 13.0 2023-12-29 02:39:00
2005-01-23 12:00:00 Temperatura 14.6 del 23-01-2005 12:00, Menor que la Mínima 15.0 23-01-2005 12:00 14.6 -- 15.0 2023-12-29 02:39:00
2005-02-02 12:00:00 Temperatura 12.8 del 02-02-2005 12:00, Menor que la Mínima 13.4 02-02-2005 12:00 12.8 -- 13.4 2023-12-29 02:39:00
2005-02-07 12:00:00 Temperatura 13.2 del 07-02-2005 12:00, Menor que la Mínima 14.2 07-02-2005 12:00 13.2 -- 14.2 2023-12-29 02:39:00
2005-04-21 12:00:00 Temperatura 7.8 del 21-04-2005 12:00, Menor que la Mínima 8.8 21-04-2005 12:00 7.8 -- 8.8 2023-12-29 02:39:00
2005-05-06 12:00:00 Temperatura 10.6 del 06-05-2005 12:00, Menor que la Mínima 12.0 06-05-2005 12:00 10.6 -- 12.0 2023-12-29 02:39:00
2005-12-02 12:00:00 Temperatura 11.8 del 02-12-2005 12:00, Menor que la Mínima 12.0 02-12-2005 12:00 11.8 -- 12.0 2023-12-29 02:40:00
2006-01-25 12:00:00 Temperatura 13.0 del 25-01-2006 12:00, Menor que la Mínima 13.2 25-01-2006 12:00 13.0 -- 13.2 2023-12-29 02:40:00
2006-02-13 12:00:00 Temperatura 16.8 del 13-02-2006 12:00, Menor que la Mínima 17.0 13-02-2006 12:00 16.8 -- 17.0 2023-12-29 02:40:00
2006-03-23 12:00:00 Temperatura 12.4 del 23-03-2006 12:00, Menor que la Mínima 12.6 23-03-2006 12:00 12.4 -- 12.6 2023-12-29 02:40:00
2006-03-24 12:00:00 Temperatura 13.6 del 24-03-2006 12:00, Menor que la Mínima 13.8 24-03-2006 12:00 13.6 -- 13.8 2023-12-29 02:40:00
2006-03-28 12:00:00 Temperatura 13.6 del 28-03-2006 12:00, Menor que la Mínima 13.8 28-03-2006 12:00 13.6 -- 13.8 2023-12-29 02:40:00
2006-04-06 12:00:00 Temperatura 8.4 del 06-04-2006 12:00, Menor que la Mínima 9.2 06-04-2006 12:00 8.4 -- 9.2 2023-12-29 02:40:00
2006-04-07 12:00:00 Temperatura 12.0 del 07-04-2006 12:00, Menor que la Mínima 12.2 07-04-2006 12:00 12.0 -- 12.2 2023-12-29 02:40:00
2006-05-07 12:00:00 Temperatura 7.2 del 07-05-2006 12:00, Menor que la Mínima 7.4 07-05-2006 12:00 7.2 -- 7.4 2023-12-29 02:40:00
2006-06-30 12:00:00 Temperatura 9.2 del 30-06-2006 12:00, Menor que la Mínima 10.2 30-06-2006 12:00 9.2 -- 10.2 2023-12-29 02:40:00
2006-09-21 12:00:00 Temperatura 10.6 del 21-09-2006 12:00, Menor que la Mínima 12.2 21-09-2006 12:00 10.6 -- 12.2 2023-12-29 02:40:00
2006-09-22 12:00:00 Temperatura 10.6 del 22-09-2006 12:00, Menor que la Mínima 11.4 22-09-2006 12:00 10.6 -- 11.4 2023-12-29 02:40:00
2007-03-23 12:00:00 Temperatura 13.6 del 23-03-2007 12:00, Menor que la Mínima 15.0 23-03-2007 12:00 13.6 -- 15.0 2023-12-29 02:41:00
2007-04-05 12:00:00 Temperatura 13.2 del 05-04-2007 12:00, Menor que la Mínima 16.0 05-04-2007 12:00 13.2 -- 16.0 2023-12-31 01:18:00
2007-07-08 12:00:00 Temperatura 6.0 del 08-07-2007 12:00, Menor que la Mínima 6.4 08-07-2007 12:00 6.0 -- 6.4 2023-12-29 02:41:00
2010-04-10 12:00:00 Temperatura 11.2 del 10-04-2010 12:00, Menor que la Mínima 11.6 10-04-2010 12:00 11.2 -- 11.6 2023-12-29 02:43:00
2011-05-05 12:00:00 Temperatura 8.0 del 05-05-2011 12:00, Menor que la Mínima 8.4 05-05-2011 12:00 8.0 -- 8.4 2023-12-29 02:44:00
2011-06-08 12:00:00 Temperatura 8.0 del 08-06-2011 12:00, Menor que la Mínima 8.8 08-06-2011 12:00 8.0 -- 8.8 2023-12-29 02:44:00
2011-06-28 12:00:00 Temperatura 9.2 del 28-06-2011 12:00, Menor que la Mínima 9.4 28-06-2011 12:00 9.2 -- 9.4 2023-12-29 02:44:00
2011-08-08 12:00:00 Temperatura 11.2 del 08-08-2011 12:00, Menor que la Mínima 11.6 08-08-2011 12:00 11.2 -- 11.6 2023-12-29 02:44:00
2011-08-29 12:00:00 Temperatura 4.6 del 29-08-2011 12:00, Menor que la Mínima 4.8 29-08-2011 12:00 4.6 -- 4.8 2023-12-29 02:44:00
2011-12-09 12:00:00 Temperatura 13.0 del 09-12-2011 12:00, Menor que la Mínima 13.4 09-12-2011 12:00 13.0 -- 13.4 2023-12-29 02:44:00
2009-09-10 12:00:00 Ts (Temperatura Del Aire) debe ser numérico, entre -50.0 y 50.0 86.2 2023-12-29 02:43:00
2010-12-07 18:00:00 Ts (Temperatura Del Aire) debe ser numérico, entre -50.0 y 50.0 73.2 2023-12-29 02:44:00
Total de Errores Recientes 153

Detalle de Errores Encontrados

Nivel Fecha del Dato Descripción Información Error Fecha Ingreso
0 2009-09-10 12:00:00 Ts (Temperatura Del Aire) debe ser numérico, entre -50.0 y 50.0 86.2 2023-12-29 02:43:00
0 2010-12-07 18:00:00 Ts (Temperatura Del Aire) debe ser numérico, entre -50.0 y 50.0 73.2 2023-12-29 02:44:00
Errores del Nivel 2
Nivel Fecha del Dato Descripción Información Error Fecha Ingreso
2 1999-01-03 00:00:00 Temperatura 28.9 del 02-01-1999 18:00, Mayor que la Máxima 26.6 03-01-1999 00:00 28.9 -- 26.6 2023-12-29 02:37:00
2 1999-01-06 00:00:00 Temperatura 22.2 del 05-01-1999 18:00, Mayor que la Máxima 22.0 06-01-1999 00:00 22.2 -- 22.0 2023-12-29 02:37:00
2 1999-01-25 00:00:00 Temperatura 24.4 del 24-01-1999 18:00, Mayor que la Máxima 13.0 25-01-1999 00:00 24.4 -- 13.0 2023-12-29 02:37:00
2 1999-12-18 00:00:00 Temperatura 21.6 del 17-12-1999 18:00, Mayor que la Máxima 21.2 18-12-1999 00:00 21.6 -- 21.2 2023-12-29 02:38:00
2 1999-12-26 00:00:00 Temperatura 24.0 del 25-12-1999 18:00, Mayor que la Máxima 23.6 26-12-1999 00:00 24.0 -- 23.6 2023-12-29 02:38:00
2 2000-04-21 00:00:00 Temperatura 18.8 del 20-04-2000 18:00, Mayor que la Máxima 17.2 21-04-2000 00:00 18.8 -- 17.2 2023-12-29 02:38:00
2 2000-04-28 00:00:00 Temperatura 16.2 del 27-04-2000 18:00, Mayor que la Máxima 16.0 28-04-2000 00:00 16.2 -- 16.0 2023-12-29 02:38:00
2 2000-04-30 00:00:00 Temperatura 19.8 del 29-04-2000 18:00, Mayor que la Máxima 18.4 30-04-2000 00:00 19.8 -- 18.4 2023-12-29 02:38:00
2 2000-05-15 00:00:00 Temperatura 16.4 del 14-05-2000 18:00, Mayor que la Máxima 16.3 15-05-2000 00:00 16.4 -- 16.3 2023-12-29 02:38:00
2 2000-05-29 00:00:00 Temperatura 18.6 del 28-05-2000 18:00, Mayor que la Máxima 15.8 29-05-2000 00:00 18.6 -- 15.8 2023-12-29 02:38:00
2 2000-07-05 00:00:00 Temperatura 20.8 del 04-07-2000 18:00, Mayor que la Máxima 20.0 05-07-2000 00:00 20.8 -- 20.0 2023-12-29 02:38:00
2 2004-05-19 00:00:00 Temperatura 17.2 del 18-05-2004 18:00, Mayor que la Máxima 17.0 19-05-2004 00:00 17.2 -- 17.0 2023-12-29 02:38:00
2 2004-07-11 00:00:00 Temperatura 18.2 del 11-07-2004 00:00, Mayor que la Máxima 17.2 11-07-2004 00:00 18.2 -- 17.2 2023-12-29 02:39:00
2 2004-07-13 00:00:00 Temperatura 15.2 del 12-07-2004 18:00, Mayor que la Máxima 10.8 13-07-2004 00:00 15.2 -- 10.8 2023-12-29 02:39:00
2 2004-08-10 00:00:00 Temperatura 12.4 del 09-08-2004 18:00, Mayor que la Máxima 11.4 10-08-2004 00:00 12.4 -- 11.4 2023-12-29 02:39:00
2 2004-12-10 00:00:00 Temperatura 23.8 del 10-12-2004 00:00, Mayor que la Máxima 23.2 10-12-2004 00:00 23.8 -- 23.2 2023-12-29 02:39:00
2 2005-01-13 00:00:00 Temperatura 27.0 del 12-01-2005 18:00, Mayor que la Máxima 25.4 13-01-2005 00:00 27.0 -- 25.4 2023-12-29 02:39:00
2 2005-01-16 00:00:00 Temperatura 24.0 del 15-01-2005 18:00, Mayor que la Máxima 20.0 16-01-2005 00:00 24.0 -- 20.0 2023-12-29 02:39:00
2 2005-01-23 00:00:00 Temperatura 28.8 del 22-01-2005 18:00, Mayor que la Máxima 26.2 23-01-2005 00:00 28.8 -- 26.2 2023-12-29 02:39:00
2 2005-02-13 00:00:00 Temperatura 23.2 del 12-02-2005 18:00, Mayor que la Máxima 23.0 13-02-2005 00:00 23.2 -- 23.0 2023-12-29 02:39:00
2 2005-02-14 00:00:00 Temperatura 24.2 del 13-02-2005 18:00, Mayor que la Máxima 24.0 14-02-2005 00:00 24.2 -- 24.0 2023-12-29 02:39:00
2 2005-04-07 00:00:00 Temperatura 20.4 del 07-04-2005 00:00, Mayor que la Máxima 18.8 07-04-2005 00:00 20.4 -- 18.8 2023-12-29 02:39:00
2 2005-04-11 00:00:00 Temperatura 19.6 del 11-04-2005 00:00, Mayor que la Máxima 19.0 11-04-2005 00:00 19.6 -- 19.0 2023-12-29 02:39:00
2 2005-04-28 00:00:00 Temperatura 20.4 del 28-04-2005 00:00, Mayor que la Máxima 18.6 28-04-2005 00:00 20.4 -- 18.6 2023-12-29 02:39:00
2 2005-05-10 00:00:00 Temperatura 22.0 del 10-05-2005 00:00, Mayor que la Máxima 20.0 10-05-2005 00:00 22.0 -- 20.0 2023-12-29 02:39:00
2 2005-05-15 00:00:00 Temperatura 22.6 del 15-05-2005 00:00, Mayor que la Máxima 15.0 15-05-2005 00:00 22.6 -- 15.0 2023-12-29 02:39:00
2 2005-05-19 00:00:00 Temperatura 22.4 del 19-05-2005 00:00, Mayor que la Máxima 21.8 19-05-2005 00:00 22.4 -- 21.8 2023-12-29 02:39:00
2 2005-05-20 00:00:00 Temperatura 18.8 del 20-05-2005 00:00, Mayor que la Máxima 15.8 20-05-2005 00:00 18.8 -- 15.8 2023-12-29 02:39:00
2 2005-05-21 00:00:00 Temperatura 19.2 del 21-05-2005 00:00, Mayor que la Máxima 15.2 21-05-2005 00:00 19.2 -- 15.2 2023-12-29 02:39:00
2 2005-05-22 00:00:00 Temperatura 22.6 del 22-05-2005 00:00, Mayor que la Máxima 20.0 22-05-2005 00:00 22.6 -- 20.0 2023-12-29 02:39:00
2 2005-05-24 00:00:00 Temperatura 16.6 del 24-05-2005 00:00, Mayor que la Máxima 14.6 24-05-2005 00:00 16.6 -- 14.6 2023-12-29 02:39:00
2 2005-05-25 00:00:00 Temperatura 22.0 del 25-05-2005 00:00, Mayor que la Máxima 17.6 25-05-2005 00:00 22.0 -- 17.6 2023-12-29 02:39:00
2 2005-05-27 00:00:00 Temperatura 18.0 del 27-05-2005 00:00, Mayor que la Máxima 17.4 27-05-2005 00:00 18.0 -- 17.4 2023-12-29 02:39:00
2 2005-05-28 00:00:00 Temperatura 22.0 del 28-05-2005 00:00, Mayor que la Máxima 20.4 28-05-2005 00:00 22.0 -- 20.4 2023-12-29 02:39:00
2 2005-05-29 00:00:00 Temperatura 24.8 del 29-05-2005 00:00, Mayor que la Máxima 21.2 29-05-2005 00:00 24.8 -- 21.2 2023-12-29 02:39:00
2 2005-05-30 00:00:00 Temperatura 24.2 del 30-05-2005 00:00, Mayor que la Máxima 21.8 30-05-2005 00:00 24.2 -- 21.8 2023-12-29 02:39:00
2 2005-05-31 00:00:00 Temperatura 26.0 del 31-05-2005 00:00, Mayor que la Máxima 23.0 31-05-2005 00:00 26.0 -- 23.0 2023-12-29 02:39:00
2 2005-06-01 00:00:00 Temperatura 22.0 del 01-06-2005 00:00, Mayor que la Máxima 20.0 01-06-2005 00:00 22.0 -- 20.0 2023-12-29 02:39:00
2 2005-06-05 00:00:00 Temperatura 22.3 del 05-06-2005 00:00, Mayor que la Máxima 19.6 05-06-2005 00:00 22.3 -- 19.6 2023-12-29 02:39:00
2 2005-06-06 00:00:00 Temperatura 22.6 del 06-06-2005 00:00, Mayor que la Máxima 18.9 06-06-2005 00:00 22.6 -- 18.9 2023-12-29 02:39:00
2 2005-06-07 00:00:00 Temperatura 20.3 del 07-06-2005 00:00, Mayor que la Máxima 19.8 07-06-2005 00:00 20.3 -- 19.8 2023-12-29 02:39:00
2 2005-06-08 00:00:00 Temperatura 24.0 del 08-06-2005 00:00, Mayor que la Máxima 20.4 08-06-2005 00:00 24.0 -- 20.4 2023-12-29 02:39:00
2 2005-06-09 00:00:00 Temperatura 20.8 del 09-06-2005 00:00, Mayor que la Máxima 20.6 09-06-2005 00:00 20.8 -- 20.6 2023-12-29 02:39:00
2 2005-06-10 00:00:00 Temperatura 18.8 del 10-06-2005 00:00, Mayor que la Máxima 18.6 10-06-2005 00:00 18.8 -- 18.6 2023-12-29 02:39:00
2 2005-06-11 00:00:00 Temperatura 20.3 del 11-06-2005 00:00, Mayor que la Máxima 16.2 11-06-2005 00:00 20.3 -- 16.2 2023-12-29 02:39:00
2 2005-06-12 00:00:00 Temperatura 20.0 del 12-06-2005 00:00, Mayor que la Máxima 11.0 12-06-2005 00:00 20.0 -- 11.0 2023-12-29 02:39:00
2 2005-06-13 00:00:00 Temperatura 18.9 del 13-06-2005 00:00, Mayor que la Máxima 16.4 13-06-2005 00:00 18.9 -- 16.4 2023-12-29 02:39:00
2 2005-06-14 00:00:00 Temperatura 16.6 del 14-06-2005 00:00, Mayor que la Máxima 16.0 14-06-2005 00:00 16.6 -- 16.0 2023-12-29 02:39:00
2 2005-06-15 00:00:00 Temperatura 24.8 del 15-06-2005 00:00, Mayor que la Máxima 20.0 15-06-2005 00:00 24.8 -- 20.0 2023-12-29 02:39:00
2 2005-06-17 00:00:00 Temperatura 23.6 del 17-06-2005 00:00, Mayor que la Máxima 20.0 17-06-2005 00:00 23.6 -- 20.0 2023-12-29 02:39:00
2 2005-06-18 00:00:00 Temperatura 18.0 del 18-06-2005 00:00, Mayor que la Máxima 17.8 18-06-2005 00:00 18.0 -- 17.8 2023-12-29 02:39:00
2 2005-06-19 00:00:00 Temperatura 22.0 del 19-06-2005 00:00, Mayor que la Máxima 20.6 19-06-2005 00:00 22.0 -- 20.6 2023-12-29 02:39:00
2 2005-06-20 00:00:00 Temperatura 23.4 del 20-06-2005 00:00, Mayor que la Máxima 20.4 20-06-2005 00:00 23.4 -- 20.4 2023-12-29 02:39:00
2 2005-06-22 00:00:00 Temperatura 24.6 del 22-06-2005 00:00, Mayor que la Máxima 21.2 22-06-2005 00:00 24.6 -- 21.2 2023-12-29 02:39:00
2 2005-06-26 00:00:00 Temperatura 22.0 del 26-06-2005 00:00, Mayor que la Máxima 19.8 26-06-2005 00:00 22.0 -- 19.8 2023-12-29 02:39:00
2 2005-06-27 00:00:00 Temperatura 24.0 del 27-06-2005 00:00, Mayor que la Máxima 21.4 27-06-2005 00:00 24.0 -- 21.4 2023-12-29 02:39:00
2 2005-06-29 00:00:00 Temperatura 22.0 del 29-06-2005 00:00, Mayor que la Máxima 19.0 29-06-2005 00:00 22.0 -- 19.0 2023-12-29 02:39:00
2 2005-06-30 00:00:00 Temperatura 24.2 del 30-06-2005 00:00, Mayor que la Máxima 20.4 30-06-2005 00:00 24.2 -- 20.4 2023-12-29 02:39:00
2 2005-07-01 00:00:00 Temperatura 20.4 del 01-07-2005 00:00, Mayor que la Máxima 17.0 01-07-2005 00:00 20.4 -- 17.0 2023-12-29 02:39:00
2 2005-07-03 00:00:00 Temperatura 20.6 del 03-07-2005 00:00, Mayor que la Máxima 18.0 03-07-2005 00:00 20.6 -- 18.0 2023-12-29 02:39:00
2 2005-07-04 00:00:00 Temperatura 19.0 del 04-07-2005 00:00, Mayor que la Máxima 16.0 04-07-2005 00:00 19.0 -- 16.0 2023-12-29 02:39:00
2 2005-07-09 00:00:00 Temperatura 20.8 del 09-07-2005 00:00, Mayor que la Máxima 20.6 09-07-2005 00:00 20.8 -- 20.6 2023-12-29 02:39:00
2 2005-07-11 00:00:00 Temperatura 24.0 del 11-07-2005 00:00, Mayor que la Máxima 23.8 11-07-2005 00:00 24.0 -- 23.8 2023-12-29 02:39:00
2 2005-07-15 00:00:00 Temperatura 18.0 del 15-07-2005 00:00, Mayor que la Máxima 12.0 15-07-2005 00:00 18.0 -- 12.0 2023-12-29 02:39:00
2 2005-07-16 00:00:00 Temperatura 19.6 del 16-07-2005 00:00, Mayor que la Máxima 12.8 16-07-2005 00:00 19.6 -- 12.8 2023-12-29 02:39:00
2 2005-07-17 00:00:00 Temperatura 18.6 del 17-07-2005 00:00, Mayor que la Máxima 14.6 17-07-2005 00:00 18.6 -- 14.6 2023-12-29 02:39:00
2 2005-07-18 00:00:00 Temperatura 18.8 del 18-07-2005 00:00, Mayor que la Máxima 15.8 18-07-2005 00:00 18.8 -- 15.8 2023-12-29 02:39:00
2 2005-07-19 00:00:00 Temperatura 20.4 del 19-07-2005 00:00, Mayor que la Máxima 15.8 19-07-2005 00:00 20.4 -- 15.8 2023-12-29 02:39:00
2 2005-07-21 00:00:00 Temperatura 14.8 del 21-07-2005 00:00, Mayor que la Máxima 13.0 21-07-2005 00:00 14.8 -- 13.0 2023-12-29 02:39:00
2 2005-07-22 00:00:00 Temperatura 18.8 del 22-07-2005 00:00, Mayor que la Máxima 15.2 22-07-2005 00:00 18.8 -- 15.2 2023-12-29 02:39:00
2 2005-07-23 00:00:00 Temperatura 22.0 del 23-07-2005 00:00, Mayor que la Máxima 15.2 23-07-2005 00:00 22.0 -- 15.2 2023-12-29 02:39:00
2 2005-07-24 00:00:00 Temperatura 20.6 del 24-07-2005 00:00, Mayor que la Máxima 16.6 24-07-2005 00:00 20.6 -- 16.6 2023-12-29 02:39:00
2 2005-07-25 00:00:00 Temperatura 19.6 del 25-07-2005 00:00, Mayor que la Máxima 18.0 25-07-2005 00:00 19.6 -- 18.0 2023-12-29 02:39:00
2 2005-07-26 00:00:00 Temperatura 24.0 del 26-07-2005 00:00, Mayor que la Máxima 13.0 26-07-2005 00:00 24.0 -- 13.0 2023-12-29 02:39:00
2 2005-07-27 00:00:00 Temperatura 18.2 del 27-07-2005 00:00, Mayor que la Máxima 15.8 27-07-2005 00:00 18.2 -- 15.8 2023-12-29 02:39:00
2 2005-07-29 00:00:00 Temperatura 18.8 del 29-07-2005 00:00, Mayor que la Máxima 18.6 29-07-2005 00:00 18.8 -- 18.6 2023-12-29 02:39:00
2 2005-07-30 00:00:00 Temperatura 20.2 del 30-07-2005 00:00, Mayor que la Máxima 17.2 30-07-2005 00:00 20.2 -- 17.2 2023-12-29 02:39:00
2 2005-07-31 00:00:00 Temperatura 22.0 del 31-07-2005 00:00, Mayor que la Máxima 21.8 31-07-2005 00:00 22.0 -- 21.8 2023-12-29 02:39:00
2 2005-08-01 00:00:00 Temperatura 24.0 del 01-08-2005 00:00, Mayor que la Máxima 20.0 01-08-2005 00:00 24.0 -- 20.0 2023-12-29 02:39:00
2 2005-08-09 00:00:00 Temperatura 19.8 del 08-08-2005 18:00, Mayor que la Máxima 15.8 09-08-2005 00:00 19.8 -- 15.8 2023-12-29 02:39:00
2 2005-09-12 00:00:00 Temperatura 12.6 del 11-09-2005 18:00, Mayor que la Máxima 11.0 12-09-2005 00:00 12.6 -- 11.0 2023-12-29 02:39:00
2 2005-11-09 00:00:00 Temperatura 20.4 del 09-11-2005 00:00, Mayor que la Máxima 19.2 09-11-2005 00:00 20.4 -- 19.2 2023-12-29 02:40:00
2 2005-12-31 00:00:00 Temperatura 22.8 del 30-12-2005 18:00, Mayor que la Máxima 20.8 31-12-2005 00:00 22.8 -- 20.8 2023-12-29 02:40:00
2 2006-01-29 00:00:00 Temperatura 27.0 del 28-01-2006 18:00, Mayor que la Máxima 26.8 29-01-2006 00:00 27.0 -- 26.8 2023-12-29 02:40:00
2 2006-03-04 00:00:00 Temperatura 26.0 del 03-03-2006 18:00, Mayor que la Máxima 21.8 04-03-2006 00:00 26.0 -- 21.8 2023-12-29 02:40:00
2 2006-03-28 00:00:00 Temperatura 22.8 del 27-03-2006 18:00, Mayor que la Máxima 22.7 28-03-2006 00:00 22.8 -- 22.7 2023-12-29 02:40:00
2 2006-04-17 00:00:00 Temperatura 23.0 del 16-04-2006 18:00, Mayor que la Máxima 19.6 17-04-2006 00:00 23.0 -- 19.6 2023-12-29 02:40:00
2 2006-04-24 00:00:00 Temperatura 18.4 del 23-04-2006 18:00, Mayor que la Máxima 18.0 24-04-2006 00:00 18.4 -- 18.0 2023-12-29 02:40:00
2 2006-05-20 00:00:00 Temperatura 18.6 del 19-05-2006 18:00, Mayor que la Máxima 18.0 20-05-2006 00:00 18.6 -- 18.0 2023-12-29 02:40:00
2 2006-07-01 00:00:00 Temperatura 17.6 del 30-06-2006 18:00, Mayor que la Máxima 12.0 01-07-2006 00:00 17.6 -- 12.0 2023-12-29 02:40:00
2 2006-09-14 00:00:00 Temperatura 19.0 del 14-09-2006 00:00, Mayor que la Máxima 15.6 14-09-2006 00:00 19.0 -- 15.6 2023-12-29 02:40:00
2 2006-09-15 00:00:00 Temperatura 19.4 del 15-09-2006 00:00, Mayor que la Máxima 16.0 15-09-2006 00:00 19.4 -- 16.0 2023-12-29 02:40:00
2 2006-09-30 00:00:00 Temperatura 18.8 del 29-09-2006 18:00, Mayor que la Máxima 17.2 30-09-2006 00:00 18.8 -- 17.2 2023-12-29 02:40:00
2 2006-10-15 00:00:00 Temperatura 18.0 del 15-10-2006 00:00, Mayor que la Máxima 17.0 15-10-2006 00:00 18.0 -- 17.0 2023-12-29 02:40:00
2 2007-03-22 00:00:00 Temperatura 26.6 del 22-03-2007 00:00, Mayor que la Máxima 24.0 22-03-2007 00:00 26.6 -- 24.0 2023-12-29 02:41:00
2 2007-10-14 00:00:00 Temperatura 24.2 del 13-10-2007 18:00, Mayor que la Máxima 15.2 14-10-2007 00:00 24.2 -- 15.2 2023-12-29 02:41:00
2 2007-11-20 00:00:00 Temperatura 28.4 del 19-11-2007 18:00, Mayor que la Máxima 2.0 20-11-2007 00:00 28.4 -- 2.0 2023-12-29 02:41:00
2 2009-03-02 00:00:00 Temperatura 26.2 del 01-03-2009 18:00, Mayor que la Máxima 24.0 02-03-2009 00:00 26.2 -- 24.0 2023-12-29 02:42:00
2 2009-06-05 00:00:00 Temperatura 23.9 del 04-06-2009 18:00, Mayor que la Máxima 18.4 05-06-2009 00:00 23.9 -- 18.4 2023-12-29 02:42:00
2 2009-06-07 00:00:00 Temperatura 17.6 del 06-06-2009 18:00, Mayor que la Máxima 17.0 07-06-2009 00:00 17.6 -- 17.0 2023-12-29 02:42:00
2 2009-07-22 00:00:00 Temperatura 14.6 del 21-07-2009 18:00, Mayor que la Máxima 14.4 22-07-2009 00:00 14.6 -- 14.4 2023-12-29 02:43:00
2 2009-08-01 00:00:00 Temperatura 16.8 del 31-07-2009 18:00, Mayor que la Máxima 15.4 01-08-2009 00:00 16.8 -- 15.4 2023-12-29 02:43:00
2 2009-08-12 00:00:00 Temperatura 22.4 del 11-08-2009 18:00, Mayor que la Máxima 16.2 12-08-2009 00:00 22.4 -- 16.2 2023-12-29 02:43:00
2 2009-09-13 00:00:00 Temperatura 13.0 del 12-09-2009 18:00, Mayor que la Máxima 12.4 13-09-2009 00:00 13.0 -- 12.4 2023-12-29 02:43:00
2 2009-09-26 00:00:00 Temperatura 19.8 del 25-09-2009 18:00, Mayor que la Máxima 12.0 26-09-2009 00:00 19.8 -- 12.0 2023-12-29 02:43:00
2 2009-11-03 00:00:00 Temperatura 19.6 del 02-11-2009 18:00, Mayor que la Máxima 19.2 03-11-2009 00:00 19.6 -- 19.2 2023-12-29 02:43:00
2 2009-11-28 00:00:00 Temperatura 22.0 del 27-11-2009 18:00, Mayor que la Máxima 21.4 28-11-2009 00:00 22.0 -- 21.4 2023-12-29 02:43:00
2 2010-01-21 00:00:00 Temperatura 24.6 del 20-01-2010 18:00, Mayor que la Máxima 24.0 21-01-2010 00:00 24.6 -- 24.0 2023-12-29 02:43:00
2 2010-01-22 00:00:00 Temperatura 29.6 del 21-01-2010 18:00, Mayor que la Máxima 27.8 22-01-2010 00:00 29.6 -- 27.8 2023-12-29 02:43:00
2 2010-09-01 00:00:00 Temperatura 15.6 del 31-08-2010 18:00, Mayor que la Máxima 11.2 01-09-2010 00:00 15.6 -- 11.2 2023-11-13 03:20:00
2 2010-10-13 00:00:00 Temperatura 14.6 del 12-10-2010 18:00, Mayor que la Máxima 9.0 13-10-2010 00:00 14.6 -- 9.0 2023-12-29 02:44:00
2 2011-07-18 00:00:00 Temperatura 12.2 del 17-07-2011 18:00, Mayor que la Máxima 1.8 18-07-2011 00:00 12.2 -- 1.8 2023-12-29 02:44:00
2 2022-12-22 00:00:00 Temperatura 26.6 del 21-12-2022 15:00, Mayor que la Máxima 20.3 22-12-2022 00:00 26.6 -- 20.3 2022-12-22 00:21:00
2 2022-12-29 00:00:00 Temperatura 23.9 del 28-12-2022 20:00, Mayor que la Máxima 16.6 29-12-2022 00:00 23.9 -- 16.6 2022-12-29 00:21:00
2 2023-02-28 00:00:00 Temperatura 24.6 del 27-02-2023 15:00, Mayor que la Máxima 17.2 28-02-2023 00:00 24.6 -- 17.2 2023-02-28 00:20:00
2 2023-07-27 00:00:00 Temperatura 14.9 del 26-07-2023 16:00, Mayor que la Máxima 13.3 27-07-2023 00:00 14.9 -- 13.3 2023-07-27 00:08:00
2 1999-01-29 12:00:00 Temperatura 15.8 del 29-01-1999 12:00, Menor que la Mínima 16.0 29-01-1999 12:00 15.8 -- 16.0 2023-12-29 02:37:00
2 1999-10-21 12:00:00 Temperatura 12.1 del 21-10-1999 12:00, Menor que la Mínima 12.2 21-10-1999 12:00 12.1 -- 12.2 2023-12-29 02:38:00
2 1999-11-03 12:00:00 Temperatura 12.2 del 03-11-1999 12:00, Menor que la Mínima 12.4 03-11-1999 12:00 12.2 -- 12.4 2023-12-29 02:38:00
2 1999-11-09 12:00:00 Temperatura 11.2 del 09-11-1999 12:00, Menor que la Mínima 12.2 09-11-1999 12:00 11.2 -- 12.2 2023-12-29 02:38:00
2 2000-06-24 12:00:00 Temperatura 9.0 del 24-06-2000 12:00, Menor que la Mínima 10.0 24-06-2000 12:00 9.0 -- 10.0 2023-12-29 02:38:00
2 2000-06-25 12:00:00 Temperatura 8.2 del 25-06-2000 12:00, Menor que la Mínima 10.0 25-06-2000 12:00 8.2 -- 10.0 2023-12-29 02:38:00
2 2000-07-15 12:00:00 Temperatura 7.0 del 15-07-2000 12:00, Menor que la Mínima 7.1 15-07-2000 12:00 7.0 -- 7.1 2023-12-29 02:38:00
2 2000-07-21 12:00:00 Temperatura 7.6 del 21-07-2000 12:00, Menor que la Mínima 8.4 21-07-2000 12:00 7.6 -- 8.4 2023-12-29 02:38:00
2 2004-07-10 12:00:00 Temperatura 4.8 del 10-07-2004 12:00, Menor que la Mínima 5.6 10-07-2004 12:00 4.8 -- 5.6 2023-12-29 02:39:00
2 2004-09-03 12:00:00 Temperatura 12.6 del 03-09-2004 12:00, Menor que la Mínima 13.6 03-09-2004 12:00 12.6 -- 13.6 2023-12-29 02:39:00
2 2004-09-05 12:00:00 Temperatura 10.6 del 05-09-2004 12:00, Menor que la Mínima 13.2 05-09-2004 12:00 10.6 -- 13.2 2023-12-29 02:39:00
2 2004-09-13 12:00:00 Temperatura 9.6 del 13-09-2004 12:00, Menor que la Mínima 9.8 13-09-2004 12:00 9.6 -- 9.8 2023-12-29 02:39:00
2 2004-12-20 12:00:00 Temperatura 12.4 del 20-12-2004 12:00, Menor que la Mínima 13.0 20-12-2004 12:00 12.4 -- 13.0 2023-12-29 02:39:00
2 2005-01-23 12:00:00 Temperatura 14.6 del 23-01-2005 12:00, Menor que la Mínima 15.0 23-01-2005 12:00 14.6 -- 15.0 2023-12-29 02:39:00
2 2005-02-02 12:00:00 Temperatura 12.8 del 02-02-2005 12:00, Menor que la Mínima 13.4 02-02-2005 12:00 12.8 -- 13.4 2023-12-29 02:39:00
2 2005-02-07 12:00:00 Temperatura 13.2 del 07-02-2005 12:00, Menor que la Mínima 14.2 07-02-2005 12:00 13.2 -- 14.2 2023-12-29 02:39:00
2 2005-04-21 12:00:00 Temperatura 7.8 del 21-04-2005 12:00, Menor que la Mínima 8.8 21-04-2005 12:00 7.8 -- 8.8 2023-12-29 02:39:00
2 2005-05-06 12:00:00 Temperatura 10.6 del 06-05-2005 12:00, Menor que la Mínima 12.0 06-05-2005 12:00 10.6 -- 12.0 2023-12-29 02:39:00
2 2005-12-02 12:00:00 Temperatura 11.8 del 02-12-2005 12:00, Menor que la Mínima 12.0 02-12-2005 12:00 11.8 -- 12.0 2023-12-29 02:40:00
2 2006-01-25 12:00:00 Temperatura 13.0 del 25-01-2006 12:00, Menor que la Mínima 13.2 25-01-2006 12:00 13.0 -- 13.2 2023-12-29 02:40:00
2 2006-02-13 12:00:00 Temperatura 16.8 del 13-02-2006 12:00, Menor que la Mínima 17.0 13-02-2006 12:00 16.8 -- 17.0 2023-12-29 02:40:00
2 2006-03-23 12:00:00 Temperatura 12.4 del 23-03-2006 12:00, Menor que la Mínima 12.6 23-03-2006 12:00 12.4 -- 12.6 2023-12-29 02:40:00
2 2006-03-24 12:00:00 Temperatura 13.6 del 24-03-2006 12:00, Menor que la Mínima 13.8 24-03-2006 12:00 13.6 -- 13.8 2023-12-29 02:40:00
2 2006-03-28 12:00:00 Temperatura 13.6 del 28-03-2006 12:00, Menor que la Mínima 13.8 28-03-2006 12:00 13.6 -- 13.8 2023-12-29 02:40:00
2 2006-04-06 12:00:00 Temperatura 8.4 del 06-04-2006 12:00, Menor que la Mínima 9.2 06-04-2006 12:00 8.4 -- 9.2 2023-12-29 02:40:00
2 2006-04-07 12:00:00 Temperatura 12.0 del 07-04-2006 12:00, Menor que la Mínima 12.2 07-04-2006 12:00 12.0 -- 12.2 2023-12-29 02:40:00
2 2006-05-07 12:00:00 Temperatura 7.2 del 07-05-2006 12:00, Menor que la Mínima 7.4 07-05-2006 12:00 7.2 -- 7.4 2023-12-29 02:40:00
2 2006-06-30 12:00:00 Temperatura 9.2 del 30-06-2006 12:00, Menor que la Mínima 10.2 30-06-2006 12:00 9.2 -- 10.2 2023-12-29 02:40:00
2 2006-09-21 12:00:00 Temperatura 10.6 del 21-09-2006 12:00, Menor que la Mínima 12.2 21-09-2006 12:00 10.6 -- 12.2 2023-12-29 02:40:00
2 2006-09-22 12:00:00 Temperatura 10.6 del 22-09-2006 12:00, Menor que la Mínima 11.4 22-09-2006 12:00 10.6 -- 11.4 2023-12-29 02:40:00
2 2007-03-23 12:00:00 Temperatura 13.6 del 23-03-2007 12:00, Menor que la Mínima 15.0 23-03-2007 12:00 13.6 -- 15.0 2023-12-29 02:41:00
2 2007-04-05 12:00:00 Temperatura 13.2 del 05-04-2007 12:00, Menor que la Mínima 16.0 05-04-2007 12:00 13.2 -- 16.0 2023-12-31 01:18:00
2 2007-07-08 12:00:00 Temperatura 6.0 del 08-07-2007 12:00, Menor que la Mínima 6.4 08-07-2007 12:00 6.0 -- 6.4 2023-12-29 02:41:00
2 2010-04-10 12:00:00 Temperatura 11.2 del 10-04-2010 12:00, Menor que la Mínima 11.6 10-04-2010 12:00 11.2 -- 11.6 2023-12-29 02:43:00
2 2010-09-01 12:00:00 Temperatura 7.8 del 01-09-2010 12:00, Menor que la Mínima 8.0 01-09-2010 12:00 7.8 -- 8.0 2023-11-13 03:20:00
2 2010-10-06 12:00:00 Temperatura 9.2 del 06-10-2010 12:00, Menor que la Mínima 10.2 06-10-2010 12:00 9.2 -- 10.2 2023-11-13 03:20:00
2 2010-10-12 12:00:00 Temperatura 9.8 del 12-10-2010 12:00, Menor que la Mínima 11.2 12-10-2010 12:00 9.8 -- 11.2 2023-11-13 03:20:00
2 2011-05-05 12:00:00 Temperatura 8.0 del 05-05-2011 12:00, Menor que la Mínima 8.4 05-05-2011 12:00 8.0 -- 8.4 2023-12-29 02:44:00
2 2011-06-08 12:00:00 Temperatura 8.0 del 08-06-2011 12:00, Menor que la Mínima 8.8 08-06-2011 12:00 8.0 -- 8.8 2023-12-29 02:44:00
2 2011-06-28 12:00:00 Temperatura 9.2 del 28-06-2011 12:00, Menor que la Mínima 9.4 28-06-2011 12:00 9.2 -- 9.4 2023-12-29 02:44:00
2 2011-08-08 12:00:00 Temperatura 11.2 del 08-08-2011 12:00, Menor que la Mínima 11.6 08-08-2011 12:00 11.2 -- 11.6 2023-12-29 02:44:00
2 2011-08-29 12:00:00 Temperatura 4.6 del 29-08-2011 12:00, Menor que la Mínima 4.8 29-08-2011 12:00 4.6 -- 4.8 2023-12-29 02:44:00
2 2011-12-09 12:00:00 Temperatura 13.0 del 09-12-2011 12:00, Menor que la Mínima 13.4 09-12-2011 12:00 13.0 -- 13.4 2023-12-29 02:44:00
2 2022-11-03 12:00:00 Temperatura 10.1 del 03-11-2022 10:00, Menor que la Mínima 11.2 03-11-2022 12:00 10.1 -- 11.2 2022-11-03 12:20:00
2 2022-11-20 12:00:00 Temperatura 9.9 del 20-11-2022 10:00, Menor que la Mínima 12.8 20-11-2022 12:00 9.9 -- 12.8 2022-11-20 12:21:00
2 2023-02-22 12:00:00 Temperatura 12.8 del 22-02-2023 08:00, Menor que la Mínima 12.9 22-02-2023 12:00 12.8 -- 12.9 2023-02-22 12:21:00
Errores del Nivel 162
Informe generado el 23-02-2024 09:40
Requerimiento: RE6001